sensor_id;sensor_type;location;lat;lon;timestamp;temperature;humidity
30280;DHT22;17097;50.916;5.344;2022-10-16T00:01:14;16.00;99.90
30280;DHT22;17097;50.916;5.344;2022-10-16T00:03:41;16.10;99.90
30280;DHT22;17097;50.916;5.344;2022-10-16T00:06:08;16.00;99.90
30280;DHT22;17097;50.916;5.344;2022-10-16T00:08:34;16.00;99.90
30280;DHT22;17097;50.916;5.344;2022-10-16T00:11:08;16.00;99.90
30280;DHT22;17097;50.916;5.344;2022-10-16T00:13:34;15.80;99.90
30280;DHT22;17097;50.916;5.344;2022-10-16T00:16:00;15.80;99.90
30280;DHT22;17097;50.916;5.344;2022-10-16T00:18:27;15.80;99.90
30280;DHT22;17097;50.916;5.344;2022-10-16T00:20:53;15.70;99.90
30280;DHT22;17097;50.916;5.344;2022-10-16T00:23:19;15.70;99.90
30280;DHT22;17097;50.916;5.344;2022-10-16T00:25:54;15.70;99.90
30280;DHT22;17097;50.916;5.344;2022-10-16T00:28:20;15.70;99.90
30280;DHT22;17097;50.916;5.344;2022-10-16T00:30:46;15.70;99.90
30280;DHT22;17097;50.916;5.344;2022-10-16T00:33:11;15.70;99.90
30280;DHT22;17097;50.916;5.344;2022-10-16T00:35:37;15.70;99.90
30280;DHT22;17097;50.916;5.344;2022-10-16T00:38:02;15.70;99.90
30280;DHT22;17097;50.916;5.344;2022-10-16T00:40:28;15.70;99.90
30280;DHT22;17097;50.916;5.344;2022-10-16T00:42:54;15.70;99.90
30280;DHT22;17097;50.916;5.344;2022-10-16T00:45:19;15.70;99.90
30280;DHT22;17097;50.916;5.344;2022-10-16T00:47:45;15.70;99.90
30280;DHT22;17097;50.916;5.344;2022-10-16T00:50:27;15.70;99.90
30280;DHT22;17097;50.916;5.344;2022-10-16T00:52:54;15.70;99.90
30280;DHT22;17097;50.916;5.344;2022-10-16T00:55:20;15.60;99.90
30280;DHT22;17097;50.916;5.344;2022-10-16T00:57:47;15.70;99.90
30280;DHT22;17097;50.916;5.344;2022-10-16T01:00:14;15.60;99.90
30280;DHT22;17097;50.916;5.344;2022-10-16T01:02:41;15.70;99.90
30280;DHT22;17097;50.916;5.344;2022-10-16T01:05:07;15.70;99.90
30280;DHT22;17097;50.916;5.344;2022-10-16T01:17:36;15.60;99.90
30280;DHT22;17097;50.916;5.344;2022-10-16T01:22:44;15.60;99.90
30280;DHT22;17097;50.916;5.344;2022-10-16T01:25:20;15.60;99.90
30280;DHT22;17097;50.916;5.344;2022-10-16T01:27:49;15.60;99.90
30280;DHT22;17097;50.916;5.344;2022-10-16T01:35:21;15.50;99.90
30280;DHT22;17097;50.916;5.344;2022-10-16T01:40:21;15.50;99.90
30280;DHT22;17097;50.916;5.344;2022-10-16T01:42:52;15.50;99.90
30280;DHT22;17097;50.916;5.344;2022-10-16T01:45:19;15.60;99.90
30280;DHT22;17097;50.916;5.344;2022-10-16T01:47:46;15.50;99.90
30280;DHT22;17097;50.916;5.344;2022-10-16T01:50:13;15.50;99.90
30280;DHT22;17097;50.916;5.344;2022-10-16T01:52:41;15.60;99.90
30280;DHT22;17097;50.916;5.344;2022-10-16T01:55:08;15.50;99.90
30280;DHT22;17097;50.916;5.344;2022-10-16T01:57:35;15.40;99.90
30280;DHT22;17097;50.916;5.344;2022-10-16T02:00:04;15.50;99.90
30280;DHT22;17097;50.916;5.344;2022-10-16T02:02:34;15.40;99.90
30280;DHT22;17097;50.916;5.344;2022-10-16T02:05:44;15.40;99.90
30280;DHT22;17097;50.916;5.344;2022-10-16T02:07:49;15.40;99.90
30280;DHT22;17097;50.916;5.344;2022-10-16T02:10:15;15.50;99.90
30280;DHT22;17097;50.916;5.344;2022-10-16T02:12:42;15.40;99.90
30280;DHT22;17097;50.916;5.344;2022-10-16T02:15:09;15.30;99.90
30280;DHT22;17097;50.916;5.344;2022-10-16T02:17:35;15.30;99.90
30280;DHT22;17097;50.916;5.344;2022-10-16T02:20:00;15.30;99.90
30280;DHT22;17097;50.916;5.344;2022-10-16T02:22:31;15.30;99.90
30280;DHT22;17097;50.916;5.344;2022-10-16T02:25:07;15.30;99.90
30280;DHT22;17097;50.916;5.344;2022-10-16T02:27:41;15.30;99.90
30280;DHT22;17097;50.916;5.344;2022-10-16T02:30:19;15.30;99.90
30280;DHT22;17097;50.916;5.344;2022-10-16T02:32:46;15.40;99.90
30280;DHT22;17097;50.916;5.344;2022-10-16T02:35:13;15.30;99.90
30280;DHT22;17097;50.916;5.344;2022-10-16T02:37:40;15.40;99.90
30280;DHT22;17097;50.916;5.344;2022-10-16T02:40:07;15.40;99.90
30280;DHT22;17097;50.916;5.344;2022-10-16T02:42:34;15.40;99.90
30280;DHT22;17097;50.916;5.344;2022-10-16T02:45:00;15.40;99.90
30280;DHT22;17097;50.916;5.344;2022-10-16T02:47:26;15.30;99.90
30280;DHT22;17097;50.916;5.344;2022-10-16T02:49:52;15.30;99.90
30280;DHT22;17097;50.916;5.344;2022-10-16T02:52:18;15.40;99.90
30280;DHT22;17097;50.916;5.344;2022-10-16T02:54:43;15.40;99.90
30280;DHT22;17097;50.916;5.344;2022-10-16T02:57:09;15.40;99.90
30280;DHT22;17097;50.916;5.344;2022-10-16T02:59:35;15.50;99.90
30280;DHT22;17097;50.916;5.344;2022-10-16T03:02:01;15.40;99.90
30280;DHT22;17097;50.916;5.344;2022-10-16T03:04:27;15.40;99.90
30280;DHT22;17097;50.916;5.344;2022-10-16T03:06:53;15.40;99.90
30280;DHT22;17097;50.916;5.344;2022-10-16T03:09:19;15.30;99.90
30280;DHT22;17097;50.916;5.344;2022-10-16T03:11:44;15.30;99.90
30280;DHT22;17097;50.916;5.344;2022-10-16T03:14:12;15.40;99.90
30280;DHT22;17097;50.916;5.344;2022-10-16T03:16:38;15.30;99.90
30280;DHT22;17097;50.916;5.344;2022-10-16T03:19:03;15.30;99.90
30280;DHT22;17097;50.916;5.344;2022-10-16T03:21:29;15.30;99.90
30280;DHT22;17097;50.916;5.344;2022-10-16T03:23:55;15.30;99.90
30280;DHT22;17097;50.916;5.344;2022-10-16T03:26:23;15.30;99.90
30280;DHT22;17097;50.916;5.344;2022-10-16T03:28:48;15.30;99.90
30280;DHT22;17097;50.916;5.344;2022-10-16T03:31:14;15.30;99.90
30280;DHT22;17097;50.916;5.344;2022-10-16T03:33:40;15.30;99.90
30280;DHT22;17097;50.916;5.344;2022-10-16T03:36:05;15.30;99.90
30280;DHT22;17097;50.916;5.344;2022-10-16T03:38:31;15.20;99.90
30280;DHT22;17097;50.916;5.344;2022-10-16T03:40:57;15.20;99.90
30280;DHT22;17097;50.916;5.344;2022-10-16T03:43:26;15.20;99.90
30280;DHT22;17097;50.916;5.344;2022-10-16T03:45:51;15.20;99.90
30280;DHT22;17097;50.916;5.344;2022-10-16T03:48:17;15.20;99.90
30280;DHT22;17097;50.916;5.344;2022-10-16T03:50:43;15.10;99.90
30280;DHT22;17097;50.916;5.344;2022-10-16T03:53:09;15.10;99.90
30280;DHT22;17097;50.916;5.344;2022-10-16T03:55:35;15.20;99.90
30280;DHT22;17097;50.916;5.344;2022-10-16T03:58:00;15.20;99.90
30280;DHT22;17097;50.916;5.344;2022-10-16T04:00:27;15.10;99.90
30280;DHT22;17097;50.916;5.344;2022-10-16T04:02:52;15.10;99.90
30280;DHT22;17097;50.916;5.344;2022-10-16T04:05:18;15.10;99.90
30280;DHT22;17097;50.916;5.344;2022-10-16T04:07:44;15.10;99.90
30280;DHT22;17097;50.916;5.344;2022-10-16T04:10:09;15.10;99.90
30280;DHT22;17097;50.916;5.344;2022-10-16T04:12:35;15.20;99.90
30280;DHT22;17097;50.916;5.344;2022-10-16T04:15:01;15.10;99.90
30280;DHT22;17097;50.916;5.344;2022-10-16T04:17:26;15.20;99.90
30280;DHT22;17097;50.916;5.344;2022-10-16T04:19:52;15.10;99.90
30280;DHT22;17097;50.916;5.344;2022-10-16T04:22:18;15.10;99.90
30280;DHT22;17097;50.916;5.344;2022-10-16T04:24:46;15.00;99.90
30280;DHT22;17097;50.916;5.344;2022-10-16T04:27:11;15.10;99.90
30280;DHT22;17097;50.916;5.344;2022-10-16T04:29:37;15.10;99.90
30280;DHT22;17097;50.916;5.344;2022-10-16T04:32:03;15.00;99.90
30280;DHT22;17097;50.916;5.344;2022-10-16T04:34:29;15.10;99.90
30280;DHT22;17097;50.916;5.344;2022-10-16T04:36:54;15.10;99.90
30280;DHT22;17097;50.916;5.344;2022-10-16T04:39:20;15.10;99.90
30280;DHT22;17097;50.916;5.344;2022-10-16T04:41:46;15.20;99.90
30280;DHT22;17097;50.916;5.344;2022-10-16T04:44:12;15.20;99.90
30280;DHT22;17097;50.916;5.344;2022-10-16T04:46:37;15.10;99.90
30280;DHT22;17097;50.916;5.344;2022-10-16T04:49:03;15.10;99.90
30280;DHT22;17097;50.916;5.344;2022-10-16T04:51:29;15.00;99.90
30280;DHT22;17097;50.916;5.344;2022-10-16T04:53:55;15.10;99.90
30280;DHT22;17097;50.916;5.344;2022-10-16T04:56:21;15.20;99.90
30280;DHT22;17097;50.916;5.344;2022-10-16T04:58:47;15.10;99.90
30280;DHT22;17097;50.916;5.344;2022-10-16T05:01:12;15.10;99.90
30280;DHT22;17097;50.916;5.344;2022-10-16T05:03:38;15.20;99.90
30280;DHT22;17097;50.916;5.344;2022-10-16T05:06:05;15.20;99.90
30280;DHT22;17097;50.916;5.344;2022-10-16T05:08:30;15.30;99.90
30280;DHT22;17097;50.916;5.344;2022-10-16T05:10:59;15.30;99.90
30280;DHT22;17097;50.916;5.344;2022-10-16T05:13:25;15.10;99.90
30280;DHT22;17097;50.916;5.344;2022-10-16T05:15:51;15.10;99.90
30280;DHT22;17097;50.916;5.344;2022-10-16T05:18:17;15.10;99.90
30280;DHT22;17097;50.916;5.344;2022-10-16T05:20:42;15.10;99.90
30280;DHT22;17097;50.916;5.344;2022-10-16T05:23:08;15.00;99.90
30280;DHT22;17097;50.916;5.344;2022-10-16T05:25:36;15.00;99.90
30280;DHT22;17097;50.916;5.344;2022-10-16T05:28:01;14.90;99.90
30280;DHT22;17097;50.916;5.344;2022-10-16T05:30:27;15.10;99.90
30280;DHT22;17097;50.916;5.344;2022-10-16T05:32:53;15.10;99.90
30280;DHT22;17097;50.916;5.344;2022-10-16T05:35:19;15.20;99.90
30280;DHT22;17097;50.916;5.344;2022-10-16T05:37:45;15.20;99.90
30280;DHT22;17097;50.916;5.344;2022-10-16T05:40:14;15.10;99.90
30280;DHT22;17097;50.916;5.344;2022-10-16T05:42:40;15.00;99.90
30280;DHT22;17097;50.916;5.344;2022-10-16T05:45:06;15.00;99.90
30280;DHT22;17097;50.916;5.344;2022-10-16T05:47:33;15.00;99.90
30280;DHT22;17097;50.916;5.344;2022-10-16T05:49:59;14.90;99.90
30280;DHT22;17097;50.916;5.344;2022-10-16T05:52:24;14.90;99.90
30280;DHT22;17097;50.916;5.344;2022-10-16T05:54:51;15.00;99.90
30280;DHT22;17097;50.916;5.344;2022-10-16T05:57:17;14.90;99.90
30280;DHT22;17097;50.916;5.344;2022-10-16T05:59:42;15.00;99.90
30280;DHT22;17097;50.916;5.344;2022-10-16T06:02:11;15.00;99.90
30280;DHT22;17097;50.916;5.344;2022-10-16T06:04:37;15.00;99.90
30280;DHT22;17097;50.916;5.344;2022-10-16T06:07:03;15.00;99.90
30280;DHT22;17097;50.916;5.344;2022-10-16T06:09:29;15.00;99.90
30280;DHT22;17097;50.916;5.344;2022-10-16T06:11:54;15.00;99.90
30280;DHT22;17097;50.916;5.344;2022-10-16T06:14:20;15.00;99.90
30280;DHT22;17097;50.916;5.344;2022-10-16T06:16:45;14.90;99.90
30280;DHT22;17097;50.916;5.344;2022-10-16T06:19:11;15.10;99.90
30280;DHT22;17097;50.916;5.344;2022-10-16T06:21:36;15.10;99.90
30280;DHT22;17097;50.916;5.344;2022-10-16T06:24:02;15.20;99.90
30280;DHT22;17097;50.916;5.344;2022-10-16T06:26:30;15.20;99.90
30280;DHT22;17097;50.916;5.344;2022-10-16T06:28:59;15.20;99.90
30280;DHT22;17097;50.916;5.344;2022-10-16T06:31:25;15.10;99.90
30280;DHT22;17097;50.916;5.344;2022-10-16T06:33:53;15.10;99.90
30280;DHT22;17097;50.916;5.344;2022-10-16T06:36:19;15.00;99.90
30280;DHT22;17097;50.916;5.344;2022-10-16T06:38:45;15.00;99.90
30280;DHT22;17097;50.916;5.344;2022-10-16T06:41:14;15.00;99.90
30280;DHT22;17097;50.916;5.344;2022-10-16T06:43:40;15.00;99.90
30280;DHT22;17097;50.916;5.344;2022-10-16T06:46:07;15.00;99.90
30280;DHT22;17097;50.916;5.344;2022-10-16T06:48:35;15.00;99.90
30280;DHT22;17097;50.916;5.344;2022-10-16T06:51:04;15.00;99.90
30280;DHT22;17097;50.916;5.344;2022-10-16T06:53:31;15.00;99.90
30280;DHT22;17097;50.916;5.344;2022-10-16T06:55:57;15.00;99.90
30280;DHT22;17097;50.916;5.344;2022-10-16T06:58:23;15.00;99.90
30280;DHT22;17097;50.916;5.344;2022-10-16T07:00:49;15.00;99.90
30280;DHT22;17097;50.916;5.344;2022-10-16T07:03:19;15.00;99.90
30280;DHT22;17097;50.916;5.344;2022-10-16T07:05:45;15.20;99.90
30280;DHT22;17097;50.916;5.344;2022-10-16T07:08:11;15.50;99.90
30280;DHT22;17097;50.916;5.344;2022-10-16T07:10:39;15.70;99.90
30280;DHT22;17097;50.916;5.344;2022-10-16T07:13:05;15.90;99.90
30280;DHT22;17097;50.916;5.344;2022-10-16T07:15:32;16.10;99.90
30280;DHT22;17097;50.916;5.344;2022-10-16T07:17:58;16.10;99.90
30280;DHT22;17097;50.916;5.344;2022-10-16T07:20:23;16.20;99.90
30280;DHT22;17097;50.916;5.344;2022-10-16T07:22:49;16.30;99.90
30280;DHT22;17097;50.916;5.344;2022-10-16T07:25:15;16.30;99.90
30280;DHT22;17097;50.916;5.344;2022-10-16T07:27:41;16.50;99.90
30280;DHT22;17097;50.916;5.344;2022-10-16T07:30:07;16.60;99.90
30280;DHT22;17097;50.916;5.344;2022-10-16T07:32:33;16.60;99.90
30280;DHT22;17097;50.916;5.344;2022-10-16T07:34:59;16.70;99.90
30280;DHT22;17097;50.916;5.344;2022-10-16T07:37:24;16.80;99.90
30280;DHT22;17097;50.916;5.344;2022-10-16T07:39:50;17.00;99.90
30280;DHT22;17097;50.916;5.344;2022-10-16T07:42:16;17.10;99.90
30280;DHT22;17097;50.916;5.344;2022-10-16T07:44:41;17.20;99.90
30280;DHT22;17097;50.916;5.344;2022-10-16T07:47:07;17.30;99.90
30280;DHT22;17097;50.916;5.344;2022-10-16T07:49:33;17.40;99.90
30280;DHT22;17097;50.916;5.344;2022-10-16T07:51:59;17.60;99.90
30280;DHT22;17097;50.916;5.344;2022-10-16T07:54:25;17.70;99.90
30280;DHT22;17097;50.916;5.344;2022-10-16T07:56:50;17.70;99.90
30280;DHT22;17097;50.916;5.344;2022-10-16T07:59:16;17.60;99.90
30280;DHT22;17097;50.916;5.344;2022-10-16T08:01:42;17.70;99.90
30280;DHT22;17097;50.916;5.344;2022-10-16T08:04:08;17.70;99.90
30280;DHT22;17097;50.916;5.344;2022-10-16T08:06:35;18.00;99.90
30280;DHT22;17097;50.916;5.344;2022-10-16T08:09:01;18.10;99.90
30280;DHT22;17097;50.916;5.344;2022-10-16T08:11:29;18.30;99.90
30280;DHT22;17097;50.916;5.344;2022-10-16T08:13:55;18.50;99.90
30280;DHT22;17097;50.916;5.344;2022-10-16T08:16:20;18.60;99.90
30280;DHT22;17097;50.916;5.344;2022-10-16T08:18:46;18.70;99.90
30280;DHT22;17097;50.916;5.344;2022-10-16T08:21:13;18.70;99.90
30280;DHT22;17097;50.916;5.344;2022-10-16T08:23:39;18.80;99.90
30280;DHT22;17097;50.916;5.344;2022-10-16T08:26:05;18.80;99.90
30280;DHT22;17097;50.916;5.344;2022-10-16T08:28:31;18.90;99.90
30280;DHT22;17097;50.916;5.344;2022-10-16T08:31:04;19.00;99.90
30280;DHT22;17097;50.916;5.344;2022-10-16T08:33:32;19.10;99.90
30280;DHT22;17097;50.916;5.344;2022-10-16T08:36:00;19.30;99.90
30280;DHT22;17097;50.916;5.344;2022-10-16T08:38:25;19.40;99.90
30280;DHT22;17097;50.916;5.344;2022-10-16T08:40:51;19.40;99.90
30280;DHT22;17097;50.916;5.344;2022-10-16T08:49:08;19.00;99.90
30280;DHT22;17097;50.916;5.344;2022-10-16T08:51:36;19.40;99.90
30280;DHT22;17097;50.916;5.344;2022-10-16T08:54:06;19.60;99.90
30280;DHT22;17097;50.916;5.344;2022-10-16T08:56:32;19.80;99.90
30280;DHT22;17097;50.916;5.344;2022-10-16T08:58:59;19.80;99.90
30280;DHT22;17097;50.916;5.344;2022-10-16T09:01:27;19.90;99.90
30280;DHT22;17097;50.916;5.344;2022-10-16T09:04:38;19.80;99.90
30280;DHT22;17097;50.916;5.344;2022-10-16T09:06:45;20.00;99.90
30280;DHT22;17097;50.916;5.344;2022-10-16T09:11:58;19.80;99.90
30280;DHT22;17097;50.916;5.344;2022-10-16T09:17:32;19.70;99.90
30280;DHT22;17097;50.916;5.344;2022-10-16T09:22:43;19.60;99.90
30280;DHT22;17097;50.916;5.344;2022-10-16T09:25:14;19.60;99.90
30280;DHT22;17097;50.916;5.344;2022-10-16T09:27:40;19.70;99.90
30280;DHT22;17097;50.916;5.344;2022-10-16T09:30:15;19.70;99.90
30280;DHT22;17097;50.916;5.344;2022-10-16T09:32:41;19.80;99.90
30280;DHT22;17097;50.916;5.344;2022-10-16T09:35:11;19.90;99.90
30280;DHT22;17097;50.916;5.344;2022-10-16T09:37:38;20.00;99.90
30280;DHT22;17097;50.916;5.344;2022-10-16T09:40:04;20.00;99.90
30280;DHT22;17097;50.916;5.344;2022-10-16T09:42:31;20.10;99.90
30280;DHT22;17097;50.916;5.344;2022-10-16T09:44:58;20.00;99.90
30280;DHT22;17097;50.916;5.344;2022-10-16T09:47:23;20.00;99.90
30280;DHT22;17097;50.916;5.344;2022-10-16T09:49:54;20.20;99.90
30280;DHT22;17097;50.916;5.344;2022-10-16T09:52:21;20.30;99.90
30280;DHT22;17097;50.916;5.344;2022-10-16T09:54:50;20.50;99.90
30280;DHT22;17097;50.916;5.344;2022-10-16T09:57:16;20.70;99.90
30280;DHT22;17097;50.916;5.344;2022-10-16T09:59:46;20.90;99.90
30280;DHT22;17097;50.916;5.344;2022-10-16T10:02:13;21.50;99.90
30280;DHT22;17097;50.916;5.344;2022-10-16T10:04:55;22.50;99.90
30280;DHT22;17097;50.916;5.344;2022-10-16T10:07:24;23.40;99.90
30280;DHT22;17097;50.916;5.344;2022-10-16T10:09:50;24.40;99.90
30280;DHT22;17097;50.916;5.344;2022-10-16T10:12:27;24.30;99.90
30280;DHT22;17097;50.916;5.344;2022-10-16T10:14:55;24.40;99.90
30280;DHT22;17097;50.916;5.344;2022-10-16T10:17:28;24.20;99.90
30280;DHT22;17097;50.916;5.344;2022-10-16T10:19:58;24.20;99.90
30280;DHT22;17097;50.916;5.344;2022-10-16T10:25:42;23.50;99.90
30280;DHT22;17097;50.916;5.344;2022-10-16T10:30:35;22.90;99.90
30280;DHT22;17097;50.916;5.344;2022-10-16T10:45:54;21.90;99.90
30280;DHT22;17097;50.916;5.344;2022-10-16T10:48:43;21.90;99.90
30280;DHT22;17097;50.916;5.344;2022-10-16T10:56:23;21.60;99.90
30280;DHT22;17097;50.916;5.344;2022-10-16T10:59:02;21.60;99.90
30280;DHT22;17097;50.916;5.344;2022-10-16T11:01:50;21.70;99.90
30280;DHT22;17097;50.916;5.344;2022-10-16T11:07:04;21.70;99.90
30280;DHT22;17097;50.916;5.344;2022-10-16T11:09:34;21.50;99.90
30280;DHT22;17097;50.916;5.344;2022-10-16T11:12:19;21.30;99.90
30280;DHT22;17097;50.916;5.344;2022-10-16T11:14:48;21.30;99.90
30280;DHT22;17097;50.916;5.344;2022-10-16T11:17:18;21.20;99.90
30280;DHT22;17097;50.916;5.344;2022-10-16T11:19:49;21.10;99.90
30280;DHT22;17097;50.916;5.344;2022-10-16T11:22:18;21.20;99.90
30280;DHT22;17097;50.916;5.344;2022-10-16T11:24:49;21.00;99.90
30280;DHT22;17097;50.916;5.344;2022-10-16T11:27:18;21.10;99.90
30280;DHT22;17097;50.916;5.344;2022-10-16T11:29:55;21.10;99.90
30280;DHT22;17097;50.916;5.344;2022-10-16T11:44:01;21.10;99.90
30280;DHT22;17097;50.916;5.344;2022-10-16T11:46:22;21.10;99.90
30280;DHT22;17097;50.916;5.344;2022-10-16T11:49:11;21.10;99.90
30280;DHT22;17097;50.916;5.344;2022-10-16T11:51:41;21.10;99.90
30280;DHT22;17097;50.916;5.344;2022-10-16T11:54:20;21.00;99.90
30280;DHT22;17097;50.916;5.344;2022-10-16T11:56:46;21.10;99.90
30280;DHT22;17097;50.916;5.344;2022-10-16T11:59:18;21.10;99.90
30280;DHT22;17097;50.916;5.344;2022-10-16T12:01:47;21.10;99.90
30280;DHT22;17097;50.916;5.344;2022-10-16T12:06:44;21.20;99.90
30280;DHT22;17097;50.916;5.344;2022-10-16T12:09:20;21.30;99.90
30280;DHT22;17097;50.916;5.344;2022-10-16T12:11:47;21.30;99.90
30280;DHT22;17097;50.916;5.344;2022-10-16T12:16:50;21.40;99.90
30280;DHT22;17097;50.916;5.344;2022-10-16T12:19:16;21.40;99.90
30280;DHT22;17097;50.916;5.344;2022-10-16T12:21:42;21.40;99.90
30280;DHT22;17097;50.916;5.344;2022-10-16T12:24:21;21.30;99.90
30280;DHT22;17097;50.916;5.344;2022-10-16T12:26:46;21.40;99.90
30280;DHT22;17097;50.916;5.344;2022-10-16T12:31:51;21.40;99.90
30280;DHT22;17097;50.916;5.344;2022-10-16T12:34:27;21.40;99.90
30280;DHT22;17097;50.916;5.344;2022-10-16T12:36:53;21.60;99.90
30280;DHT22;17097;50.916;5.344;2022-10-16T12:39:23;21.60;99.90
30280;DHT22;17097;50.916;5.344;2022-10-16T12:42:19;21.70;99.90
30280;DHT22;17097;50.916;5.344;2022-10-16T12:44:48;21.90;99.90
30280;DHT22;17097;50.916;5.344;2022-10-16T12:49:52;22.00;99.90
30280;DHT22;17097;50.916;5.344;2022-10-16T12:55:17;21.90;99.90
30280;DHT22;17097;50.916;5.344;2022-10-16T13:03:33;21.90;99.90
30280;DHT22;17097;50.916;5.344;2022-10-16T13:08:29;21.60;99.90
30280;DHT22;17097;50.916;5.344;2022-10-16T13:29:19;21.50;99.90
30280;DHT22;17097;50.916;5.344;2022-10-16T13:31:45;21.40;99.90
30280;DHT22;17097;50.916;5.344;2022-10-16T13:34:15;21.30;99.90
30280;DHT22;17097;50.916;5.344;2022-10-16T13:36:46;21.30;99.90
30280;DHT22;17097;50.916;5.344;2022-10-16T13:39:13;21.30;99.90
30280;DHT22;17097;50.916;5.344;2022-10-16T13:41:39;21.30;99.90
30280;DHT22;17097;50.916;5.344;2022-10-16T13:44:07;21.30;99.90
30280;DHT22;17097;50.916;5.344;2022-10-16T13:46:36;21.30;99.90
30280;DHT22;17097;50.916;5.344;2022-10-16T13:51:30;21.40;99.90
30280;DHT22;17097;50.916;5.344;2022-10-16T13:53:58;21.50;99.90
30280;DHT22;17097;50.916;5.344;2022-10-16T13:56:25;21.50;99.90
30280;DHT22;17097;50.916;5.344;2022-10-16T13:58:59;21.50;99.90
30280;DHT22;17097;50.916;5.344;2022-10-16T14:01:29;21.30;99.90
30280;DHT22;17097;50.916;5.344;2022-10-16T14:04:06;21.30;99.90
30280;DHT22;17097;50.916;5.344;2022-10-16T14:06:33;21.30;99.90
30280;DHT22;17097;50.916;5.344;2022-10-16T14:09:09;21.30;99.90
30280;DHT22;17097;50.916;5.344;2022-10-16T14:11:44;21.30;99.90
30280;DHT22;17097;50.916;5.344;2022-10-16T14:14:11;21.30;99.90
30280;DHT22;17097;50.916;5.344;2022-10-16T14:16:37;21.40;99.90
30280;DHT22;17097;50.916;5.344;2022-10-16T14:19:06;21.50;99.90
30280;DHT22;17097;50.916;5.344;2022-10-16T14:21:34;21.50;99.90
30280;DHT22;17097;50.916;5.344;2022-10-16T14:23:59;21.50;99.90
30280;DHT22;17097;50.916;5.344;2022-10-16T14:26:40;21.40;99.90
30280;DHT22;17097;50.916;5.344;2022-10-16T14:29:17;21.30;99.90
30280;DHT22;17097;50.916;5.344;2022-10-16T14:31:53;21.40;99.90
30280;DHT22;17097;50.916;5.344;2022-10-16T14:34:23;21.30;99.90
30280;DHT22;17097;50.916;5.344;2022-10-16T14:36:49;21.30;99.90
30280;DHT22;17097;50.916;5.344;2022-10-16T14:39:18;21.30;99.90
30280;DHT22;17097;50.916;5.344;2022-10-16T14:41:45;21.30;99.90
30280;DHT22;17097;50.916;5.344;2022-10-16T14:44:12;21.20;99.90
30280;DHT22;17097;50.916;5.344;2022-10-16T14:46:39;21.10;99.90
30280;DHT22;17097;50.916;5.344;2022-10-16T14:51:40;21.10;99.90
30280;DHT22;17097;50.916;5.344;2022-10-16T14:54:10;21.00;99.90
30280;DHT22;17097;50.916;5.344;2022-10-16T14:56:47;21.00;99.90
30280;DHT22;17097;50.916;5.344;2022-10-16T14:59:15;20.90;99.90
30280;DHT22;17097;50.916;5.344;2022-10-16T15:01:42;20.90;99.90
30280;DHT22;17097;50.916;5.344;2022-10-16T15:04:09;20.90;99.90
30280;DHT22;17097;50.916;5.344;2022-10-16T15:06:36;20.90;99.90
30280;DHT22;17097;50.916;5.344;2022-10-16T15:09:04;20.90;99.90
30280;DHT22;17097;50.916;5.344;2022-10-16T15:11:31;20.90;99.90
30280;DHT22;17097;50.916;5.344;2022-10-16T15:14:00;20.90;99.90
30280;DHT22;17097;50.916;5.344;2022-10-16T15:16:28;20.90;99.90
30280;DHT22;17097;50.916;5.344;2022-10-16T15:18:54;20.90;99.90
30280;DHT22;17097;50.916;5.344;2022-10-16T15:21:24;20.90;99.90
30280;DHT22;17097;50.916;5.344;2022-10-16T15:23:51;20.90;99.90
30280;DHT22;17097;50.916;5.344;2022-10-16T15:26:17;20.90;99.90
30280;DHT22;17097;50.916;5.344;2022-10-16T15:28:43;20.90;99.90
30280;DHT22;17097;50.916;5.344;2022-10-16T15:31:09;21.00;99.90
30280;DHT22;17097;50.916;5.344;2022-10-16T15:33:37;21.00;99.90
30280;DHT22;17097;50.916;5.344;2022-10-16T15:36:05;20.90;99.90
30280;DHT22;17097;50.916;5.344;2022-10-16T15:38:31;20.80;99.90
30280;DHT22;17097;50.916;5.344;2022-10-16T15:40:59;20.80;99.90
30280;DHT22;17097;50.916;5.344;2022-10-16T15:43:25;20.70;99.90
30280;DHT22;17097;50.916;5.344;2022-10-16T15:46:01;20.60;99.90
30280;DHT22;17097;50.916;5.344;2022-10-16T15:48:27;20.60;99.90
30280;DHT22;17097;50.916;5.344;2022-10-16T15:50:53;20.60;99.90
30280;DHT22;17097;50.916;5.344;2022-10-16T15:53:21;20.60;99.90
30280;DHT22;17097;50.916;5.344;2022-10-16T15:55:47;20.50;99.90
30280;DHT22;17097;50.916;5.344;2022-10-16T15:58:13;20.40;99.90
30280;DHT22;17097;50.916;5.344;2022-10-16T16:00:39;20.40;99.90
30280;DHT22;17097;50.916;5.344;2022-10-16T16:03:07;20.40;99.90
30280;DHT22;17097;50.916;5.344;2022-10-16T16:05:36;20.30;99.90
30280;DHT22;17097;50.916;5.344;2022-10-16T16:08:02;20.30;99.90
30280;DHT22;17097;50.916;5.344;2022-10-16T16:10:28;20.20;99.90
30280;DHT22;17097;50.916;5.344;2022-10-16T16:12:56;20.10;99.90
30280;DHT22;17097;50.916;5.344;2022-10-16T16:15:22;20.10;99.90
30280;DHT22;17097;50.916;5.344;2022-10-16T16:17:51;20.10;99.90
30280;DHT22;17097;50.916;5.344;2022-10-16T16:20:19;20.00;99.90
30280;DHT22;17097;50.916;5.344;2022-10-16T16:22:45;20.00;99.90
30280;DHT22;17097;50.916;5.344;2022-10-16T16:25:13;20.00;99.90
30280;DHT22;17097;50.916;5.344;2022-10-16T16:27:39;20.00;99.90
30280;DHT22;17097;50.916;5.344;2022-10-16T16:30:06;19.90;99.90
30280;DHT22;17097;50.916;5.344;2022-10-16T16:32:32;19.90;99.90
30280;DHT22;17097;50.916;5.344;2022-10-16T16:34:58;19.90;99.90
30280;DHT22;17097;50.916;5.344;2022-10-16T16:37:27;19.80;99.90
30280;DHT22;17097;50.916;5.344;2022-10-16T16:39:53;19.70;99.90
30280;DHT22;17097;50.916;5.344;2022-10-16T16:42:20;19.60;99.90
30280;DHT22;17097;50.916;5.344;2022-10-16T16:44:47;19.60;99.90
30280;DHT22;17097;50.916;5.344;2022-10-16T16:47:13;19.50;99.90
30280;DHT22;17097;50.916;5.344;2022-10-16T16:49:38;19.50;99.90
30280;DHT22;17097;50.916;5.344;2022-10-16T16:52:06;19.60;99.90
30280;DHT22;17097;50.916;5.344;2022-10-16T16:54:32;19.60;99.90
30280;DHT22;17097;50.916;5.344;2022-10-16T16:56:58;19.60;99.90
30280;DHT22;17097;50.916;5.344;2022-10-16T16:59:23;19.50;99.90
30280;DHT22;17097;50.916;5.344;2022-10-16T17:01:49;19.40;99.90
30280;DHT22;17097;50.916;5.344;2022-10-16T17:04:15;19.30;99.90
30280;DHT22;17097;50.916;5.344;2022-10-16T17:06:44;19.20;99.90
30280;DHT22;17097;50.916;5.344;2022-10-16T17:09:10;19.20;99.90
30280;DHT22;17097;50.916;5.344;2022-10-16T17:11:38;19.20;99.90
30280;DHT22;17097;50.916;5.344;2022-10-16T17:14:06;19.20;99.90
30280;DHT22;17097;50.916;5.344;2022-10-16T17:16:36;19.10;99.90
30280;DHT22;17097;50.916;5.344;2022-10-16T17:19:03;19.10;99.90
30280;DHT22;17097;50.916;5.344;2022-10-16T17:21:32;19.00;99.90
30280;DHT22;17097;50.916;5.344;2022-10-16T17:23:58;19.00;99.90
30280;DHT22;17097;50.916;5.344;2022-10-16T17:26:24;19.00;99.90
30280;DHT22;17097;50.916;5.344;2022-10-16T17:28:50;19.00;99.90
30280;DHT22;17097;50.916;5.344;2022-10-16T17:31:17;19.00;99.90